Time;durP1;ratioP1;P1;durP2;ratioP2;P2;SDS_P1;SDS_P2;PMS_P1;PMS_P2;Temp;Humidity;BMP_temperature;BMP_pressure;BME280_temperature;BME280_humidity;BME280_pressure;Samples;Min_cycle;Max_cycle;Signal;HPM_P1;HPM_P2
2023/07/10 00:00:51;;;;;;;1.30;1.20;;;;;;;;;;2096466;28;20048;-63
2023/07/10 00:02:12;;;;;;;1.42;0.93;;;;;;;;;;2099785;28;20037;-63
2023/07/10 00:03:31;;;;;;;1.20;1.10;;;;;;;;;;2098096;28;20025;-63
2023/07/10 00:04:50;;;;;;;3.05;1.20;;;;;;;;;;2100583;28;20036;-63
2023/07/10 00:06:13;;;;;;;1.42;1.20;;;;;;;;;;2099235;28;20033;-63
2023/07/10 00:07:32;;;;;;;1.10;1.00;;;;;;;;;;2099133;28;20486;-62
2023/07/10 00:08:51;;;;;;;2.35;0.90;;;;;;;;;;2100798;28;20489;-62
2023/07/10 00:10:10;;;;;;;1.30;1.20;;;;;;;;;;2098237;28;20020;-63
2023/07/10 00:11:30;;;;;;;1.20;1.10;;;;;;;;;;2098437;28;20012;-63
2023/07/10 00:12:49;;;;;;;0.98;0.90;;;;;;;;;;2098897;28;20028;-62
2023/07/10 00:14:20;;;;;;;1.10;0.98;;;;;;;;;;2098297;28;20033;-63
2023/07/10 00:15:39;;;;;;;1.42;0.90;;;;;;;;;;2098017;28;20021;-63
2023/07/10 00:16:58;;;;;;;0.90;0.90;;;;;;;;;;2098402;28;20040;-64
2023/07/10 00:18:19;;;;;;;1.23;1.17;;;;;;;;;;2099172;28;20442;-62
2023/07/10 00:19:38;;;;;;;1.45;0.75;;;;;;;;;;2100233;28;20091;-62
2023/07/10 00:20:56;;;;;;;1.10;1.00;;;;;;;;;;2100855;28;20545;-61
2023/07/10 00:22:15;;;;;;;1.02;1.00;;;;;;;;;;2098511;28;20064;-62
2023/07/10 00:23:34;;;;;;;0.93;0.88;;;;;;;;;;2099822;28;20500;-61
2023/07/10 00:24:53;;;;;;;1.27;1.10;;;;;;;;;;2101125;28;20032;-62
2023/07/10 00:26:17;;;;;;;1.17;1.10;;;;;;;;;;2099429;28;20488;-63
2023/07/10 00:27:36;;;;;;;1.20;1.10;;;;;;;;;;2098108;28;20456;-63
2023/07/10 00:28:56;;;;;;;2.40;1.23;;;;;;;;;;2099477;28;20055;-63
2023/07/10 00:30:20;;;;;;;1.67;1.30;;;;;;;;;;2097991;28;20040;-63
2023/07/10 00:31:39;;;;;;;2.47;1.33;;;;;;;;;;2098422;28;20104;-62
2023/07/10 00:32:58;;;;;;;1.45;0.93;;;;;;;;;;2094019;28;20032;-62
2023/07/10 00:34:17;;;;;;;3.25;1.17;;;;;;;;;;2099200;28;21030;-62
2023/07/10 00:35:37;;;;;;;1.00;0.90;;;;;;;;;;2096811;28;20496;-61
2023/07/10 00:36:56;;;;;;;1.48;1.20;;;;;;;;;;2099518;28;20384;-62
2023/07/10 00:38:18;;;;;;;2.38;0.70;;;;;;;;;;2099619;28;20039;-62
2023/07/10 00:39:37;;;;;;;0.80;0.80;;;;;;;;;;2099060;28;20111;-62
2023/07/10 00:41:01;;;;;;;2.45;1.10;;;;;;;;;;2100534;28;20059;-62
2023/07/10 00:42:22;;;;;;;1.25;1.13;;;;;;;;;;2097421;28;20028;-62
2023/07/10 00:43:46;;;;;;;1.23;1.13;;;;;;;;;;2099158;28;20068;-63
2023/07/10 00:45:05;;;;;;;0.80;0.80;;;;;;;;;;2098911;28;20027;-64
2023/07/10 00:46:31;;;;;;;1.73;0.90;;;;;;;;;;2088700;28;20033;-63
2023/07/10 00:48:02;;;;;;;2.47;1.00;;;;;;;;;;2087631;28;20028;-63
2023/07/10 00:49:27;;;;;;;2.38;1.10;;;;;;;;;;2098330;28;20404;-63
2023/07/10 00:50:48;;;;;;;1.02;1.02;;;;;;;;;;2100018;28;20036;-63
2023/07/10 00:52:13;;;;;;;0.70;0.70;;;;;;;;;;2100086;28;20033;-63
2023/07/10 00:53:35;;;;;;;1.77;0.88;;;;;;;;;;2097567;28;20096;-63
2023/07/10 00:54:56;;;;;;;2.63;1.02;;;;;;;;;;2099964;28;20501;-63
2023/07/10 00:56:17;;;;;;;1.20;1.10;;;;;;;;;;2094717;28;22006;-62
2023/07/10 00:57:37;;;;;;;1.13;0.80;;;;;;;;;;2098830;28;20032;-63
2023/07/10 00:58:56;;;;;;;2.08;1.10;;;;;;;;;;2099875;28;20056;-63
2023/07/10 01:00:17;;;;;;;1.02;1.00;;;;;;;;;;2098990;28;20395;-63
2023/07/10 01:01:56;;;;;;;2.05;1.10;;;;;;;;;;2099120;28;20024;-62
2023/07/10 01:03:15;;;;;;;1.10;0.90;;;;;;;;;;2098056;28;20020;-63
2023/07/10 01:04:34;;;;;;;1.45;1.00;;;;;;;;;;2099940;28;20044;-63
2023/07/10 01:05:54;;;;;;;1.50;1.20;;;;;;;;;;2098742;28;20682;-63
2023/07/10 01:07:14;;;;;;;1.10;1.10;;;;;;;;;;2096510;28;20036;-63
2023/07/10 01:08:34;;;;;;;1.05;1.00;;;;;;;;;;2099481;28;20055;-63
2023/07/10 01:10:00;;;;;;;1.30;1.20;;;;;;;;;;2100072;28;20028;-63
2023/07/10 01:11:19;;;;;;;2.17;1.27;;;;;;;;;;2100735;28;20032;-63
2023/07/10 01:12:42;;;;;;;1.20;0.95;;;;;;;;;;2096567;28;20028;-61
2023/07/10 01:14:03;;;;;;;1.98;1.10;;;;;;;;;;2098636;28;20100;-61
2023/07/10 01:15:22;;;;;;;1.45;1.20;;;;;;;;;;2098913;28;20541;-63
2023/07/10 01:16:41;;;;;;;2.13;1.00;;;;;;;;;;2097798;28;20064;-63
2023/07/10 01:18:05;;;;;;;0.95;0.95;;;;;;;;;;2098112;28;20024;-63
2023/07/10 01:19:24;;;;;;;1.27;0.90;;;;;;;;;;2100231;28;20027;-63
2023/07/10 01:20:50;;;;;;;1.40;1.00;;;;;;;;;;2097245;28;20039;-63
2023/07/10 01:22:09;;;;;;;1.33;1.17;;;;;;;;;;2098275;28;20033;-63
2023/07/10 01:23:28;;;;;;;1.10;1.10;;;;;;;;;;2099885;28;20029;-62
2023/07/10 01:24:52;;;;;;;1.00;1.00;;;;;;;;;;2097222;28;20036;-61
2023/07/10 01:26:11;;;;;;;1.15;1.00;;;;;;;;;;2099938;28;20503;-62
2023/07/10 01:27:29;;;;;;;1.10;1.00;;;;;;;;;;2096756;28;20028;-62
2023/07/10 01:28:49;;;;;;;1.70;1.50;;;;;;;;;;2097226;28;20020;-61
2023/07/10 01:30:18;;;;;;;1.30;1.23;;;;;;;;;;2097810;28;20397;-62
2023/07/10 01:31:38;;;;;;;1.60;1.30;;;;;;;;;;2096208;28;20387;-62
2023/07/10 01:32:57;;;;;;;2.20;1.45;;;;;;;;;;2096440;28;20036;-62
2023/07/10 01:34:17;;;;;;;2.55;1.52;;;;;;;;;;2098162;28;20028;-62
2023/07/10 01:35:37;;;;;;;3.50;1.52;;;;;;;;;;2096164;28;20059;-61
2023/07/10 01:36:55;;;;;;;1.95;1.35;;;;;;;;;;2088442;28;20021;-65
2023/07/10 01:38:15;;;;;;;2.17;1.17;;;;;;;;;;2094495;28;20032;-61
2023/07/10 01:39:34;;;;;;;8.48;2.00;;;;;;;;;;2100690;28;20464;-61
2023/07/10 01:40:54;;;;;;;12.23;2.17;;;;;;;;;;2099205;28;20067;-62
2023/07/10 01:42:13;;;;;;;4.70;1.73;;;;;;;;;;2100281;28;20500;-62
2023/07/10 01:43:32;;;;;;;8.20;1.90;;;;;;;;;;2101228;28;20036;-62
2023/07/10 01:44:51;;;;;;;8.48;2.33;;;;;;;;;;2098081;28;20067;-62
2023/07/10 01:46:17;;;;;;;8.20;2.47;;;;;;;;;;2098349;28;20028;-62
2023/07/10 01:47:36;;;;;;;8.88;2.17;;;;;;;;;;2098359;28;20036;-62
2023/07/10 01:48:59;;;;;;;9.15;2.00;;;;;;;;;;2099062;28;20115;-62
2023/07/10 01:50:19;;;;;;;5.32;1.92;;;;;;;;;;2101422;28;20107;-63
2023/07/10 01:51:38;;;;;;;13.73;2.60;;;;;;;;;;2098984;28;20115;-61
2023/07/10 01:52:57;;;;;;;13.35;2.85;;;;;;;;;;2101553;28;20029;-62
2023/07/10 01:54:16;;;;;;;11.73;2.58;;;;;;;;;;2092229;28;20140;-62
2023/07/10 01:55:43;;;;;;;16.50;2.42;;;;;;;;;;2096172;28;20505;-61
2023/07/10 01:57:02;;;;;;;14.27;2.67;;;;;;;;;;2099137;28;20055;-63
2023/07/10 01:58:21;;;;;;;18.85;2.92;;;;;;;;;;2098670;28;20040;-63
2023/07/10 01:59:40;;;;;;;16.95;2.85;;;;;;;;;;2100401;28;20024;-63
2023/07/10 02:01:00;;;;;;;25.13;2.78;;;;;;;;;;2097445;28;20060;-62
2023/07/10 02:02:19;;;;;;;7.32;2.05;;;;;;;;;;2097471;28;20438;-62
2023/07/10 02:03:38;;;;;;;17.40;2.47;;;;;;;;;;2092100;28;20513;-62
2023/07/10 02:04:57;;;;;;;8.15;2.40;;;;;;;;;;2098025;28;20103;-61
2023/07/10 02:06:16;;;;;;;16.23;2.92;;;;;;;;;;2101165;28;20033;-63
2023/07/10 02:07:35;;;;;;;9.00;2.03;;;;;;;;;;2091696;28;20083;-63
2023/07/10 02:08:53;;;;;;;8.55;1.83;;;;;;;;;;2096414;28;20033;-63
2023/07/10 02:10:12;;;;;;;15.02;2.47;;;;;;;;;;2098132;28;20405;-63
2023/07/10 02:11:34;;;;;;;10.32;2.30;;;;;;;;;;2097043;28;20043;-62
2023/07/10 02:12:53;;;;;;;12.10;2.35;;;;;;;;;;2098683;28;20472;-60
2023/07/10 02:14:12;;;;;;;10.38;2.85;;;;;;;;;;2100031;28;20078;-62
2023/07/10 02:15:31;;;;;;;11.02;2.60;;;;;;;;;;2101520;28;20024;-61
2023/07/10 02:16:50;;;;;;;12.05;2.33;;;;;;;;;;2097164;28;20059;-62
2023/07/10 02:18:09;;;;;;;9.00;2.35;;;;;;;;;;2101268;28;20039;-62
2023/07/10 02:19:28;;;;;;;19.83;3.55;;;;;;;;;;2100192;28;20041;-62
2023/07/10 02:20:50;;;;;;;14.90;2.65;;;;;;;;;;2100252;28;20055;-62
2023/07/10 02:22:09;;;;;;;7.35;2.22;;;;;;;;;;2100084;28;20040;-62
2023/07/10 02:23:28;;;;;;;7.13;2.00;;;;;;;;;;2097753;28;20024;-62
2023/07/10 02:24:47;;;;;;;13.52;2.40;;;;;;;;;;2097833;28;20033;-62
2023/07/10 02:26:06;;;;;;;7.50;1.98;;;;;;;;;;2100003;28;20024;-61
2023/07/10 02:27:25;;;;;;;14.18;2.40;;;;;;;;;;2090095;28;20045;-62
2023/07/10 02:28:44;;;;;;;9.40;2.33;;;;;;;;;;2092719;28;20024;-61
2023/07/10 02:30:03;;;;;;;9.43;2.58;;;;;;;;;;2099023;28;20024;-62
2023/07/10 02:31:23;;;;;;;13.70;2.30;;;;;;;;;;2097395;28;20024;-62
2023/07/10 02:32:42;;;;;;;6.32;1.83;;;;;;;;;;2098432;28;20032;-62
2023/07/10 02:34:01;;;;;;;4.50;2.00;;;;;;;;;;2095175;28;20032;-63
2023/07/10 02:35:20;;;;;;;7.20;2.17;;;;;;;;;;2099212;28;20028;-63
2023/07/10 02:36:39;;;;;;;9.75;2.70;;;;;;;;;;2098879;28;20033;-62
2023/07/10 02:37:58;;;;;;;11.52;2.42;;;;;;;;;;2100050;28;20032;-62
2023/07/10 02:39:17;;;;;;;5.00;2.60;;;;;;;;;;2101130;28;20037;-62
2023/07/10 02:40:36;;;;;;;10.10;2.58;;;;;;;;;;2098376;28;20024;-62
2023/07/10 02:41:55;;;;;;;9.80;2.55;;;;;;;;;;2100566;28;20028;-64
2023/07/10 02:43:14;;;;;;;26.13;3.17;;;;;;;;;;2098415;28;20389;-62
2023/07/10 02:44:33;;;;;;;10.95;2.50;;;;;;;;;;2098333;28;20021;-63
2023/07/10 02:45:51;;;;;;;7.13;2.28;;;;;;;;;;2096364;28;20016;-61
2023/07/10 02:47:10;;;;;;;9.38;2.47;;;;;;;;;;2098748;28;20033;-62
2023/07/10 02:48:29;;;;;;;14.57;3.05;;;;;;;;;;2098425;28;20040;-60
2023/07/10 02:49:48;;;;;;;26.27;2.83;;;;;;;;;;2097501;28;20024;-62
2023/07/10 02:51:07;;;;;;;11.73;2.40;;;;;;;;;;2101225;28;20040;-62
2023/07/10 02:52:26;;;;;;;18.65;2.72;;;;;;;;;;2100844;28;20056;-62
2023/07/10 02:53:45;;;;;;;6.55;2.25;;;;;;;;;;2100280;28;20016;-62
2023/07/10 02:55:04;;;;;;;7.72;2.45;;;;;;;;;;2099283;28;20036;-62
2023/07/10 02:56:23;;;;;;;6.32;2.35;;;;;;;;;;2100446;28;20485;-61
2023/07/10 02:57:42;;;;;;;8.32;1.95;;;;;;;;;;2100220;28;20509;-63
2023/07/10 02:59:01;;;;;;;6.40;2.17;;;;;;;;;;2090556;28;20480;-62
2023/07/10 03:00:20;;;;;;;5.75;2.20;;;;;;;;;;2097657;28;20135;-62
2023/07/10 03:01:39;;;;;;;8.20;2.10;;;;;;;;;;2099177;28;20490;-62
2023/07/10 03:02:59;;;;;;;8.43;1.77;;;;;;;;;;2097725;28;20032;-62
2023/07/10 03:04:18;;;;;;;9.18;2.28;;;;;;;;;;2098767;28;20025;-61
2023/07/10 03:05:36;;;;;;;9.50;2.25;;;;;;;;;;2098580;28;20029;-62
2023/07/10 03:06:55;;;;;;;5.03;1.90;;;;;;;;;;2096141;28;20028;-62
2023/07/10 03:08:14;;;;;;;5.65;1.60;;;;;;;;;;2099885;28;20033;-62
2023/07/10 03:09:33;;;;;;;5.03;1.90;;;;;;;;;;2096722;28;20602;-62
2023/07/10 03:11:02;;;;;;;2.75;1.73;;;;;;;;;;2098647;28;20029;-61
2023/07/10 03:12:21;;;;;;;5.22;1.75;;;;;;;;;;2097694;28;20032;-62
2023/07/10 03:13:40;;;;;;;2.92;1.75;;;;;;;;;;2099508;28;20028;-61
2023/07/10 03:14:59;;;;;;;2.05;1.80;;;;;;;;;;2096749;28;20027;-62
2023/07/10 03:16:18;;;;;;;4.13;1.70;;;;;;;;;;2099883;28;20031;-62
2023/07/10 03:17:37;;;;;;;4.78;1.50;;;;;;;;;;2098831;28;20037;-62
2023/07/10 03:18:56;;;;;;;4.63;1.85;;;;;;;;;;2099780;28;20119;-62
2023/07/10 03:20:15;;;;;;;3.28;1.77;;;;;;;;;;2100067;28;20119;-62
2023/07/10 03:21:33;;;;;;;3.78;1.98;;;;;;;;;;2097186;28;20028;-62
2023/07/10 03:22:52;;;;;;;3.50;1.90;;;;;;;;;;2097466;28;20655;-61
2023/07/10 03:24:11;;;;;;;2.53;1.80;;;;;;;;;;2099115;28;20036;-62
2023/07/10 03:25:30;;;;;;;2.42;1.70;;;;;;;;;;2099388;28;20033;-63
2023/07/10 03:26:49;;;;;;;2.85;1.60;;;;;;;;;;2085340;28;20108;-62
2023/07/10 03:28:08;;;;;;;3.10;1.60;;;;;;;;;;2096966;28;20032;-62
2023/07/10 03:29:27;;;;;;;1.60;1.50;;;;;;;;;;2097894;28;20445;-64
2023/07/10 03:30:46;;;;;;;2.65;1.73;;;;;;;;;;2098804;28;20478;-61
2023/07/10 03:32:06;;;;;;;2.00;1.83;;;;;;;;;;2100116;28;20029;-62
2023/07/10 03:33:26;;;;;;;1.80;1.70;;;;;;;;;;2097813;28;20028;-61
2023/07/10 03:34:45;;;;;;;2.15;1.77;;;;;;;;;;2097330;28;20024;-62
2023/07/10 03:36:06;;;;;;;1.55;1.45;;;;;;;;;;2099665;28;20433;-63
2023/07/10 03:37:25;;;;;;;3.35;1.50;;;;;;;;;;2098480;28;20036;-63
2023/07/10 03:38:43;;;;;;;2.17;1.50;;;;;;;;;;2100189;28;20029;-63
2023/07/10 03:40:02;;;;;;;1.60;1.33;;;;;;;;;;2099492;28;20025;-63
2023/07/10 03:41:21;;;;;;;1.60;1.50;;;;;;;;;;2100152;28;20111;-63
2023/07/10 03:42:40;;;;;;;1.52;1.42;;;;;;;;;;2099744;28;20032;-63
2023/07/10 03:43:59;;;;;;;3.90;1.25;;;;;;;;;;2095123;28;20600;-62
2023/07/10 03:45:18;;;;;;;1.67;1.58;;;;;;;;;;2098586;28;20036;-63
2023/07/10 03:46:37;;;;;;;1.70;1.60;;;;;;;;;;2096583;28;20394;-64
2023/07/10 03:47:56;;;;;;;1.40;1.30;;;;;;;;;;2097931;28;20028;-63
2023/07/10 03:49:16;;;;;;;1.30;1.20;;;;;;;;;;2099992;28;20466;-66
2023/07/10 03:50:36;;;;;;;3.20;1.10;;;;;;;;;;2099071;28;20061;-63
2023/07/10 03:51:55;;;;;;;2.67;1.20;;;;;;;;;;2090014;28;20025;-62
2023/07/10 03:53:14;;;;;;;1.48;1.20;;;;;;;;;;2096250;28;20487;-62
2023/07/10 03:54:33;;;;;;;1.50;1.40;;;;;;;;;;2099687;28;20028;-62
2023/07/10 03:55:52;;;;;;;2.70;1.50;;;;;;;;;;2100735;28;20477;-62
2023/07/10 03:57:12;;;;;;;1.40;1.30;;;;;;;;;;2095988;28;20103;-63
2023/07/10 03:58:32;;;;;;;1.73;1.40;;;;;;;;;;2100274;28;20020;-62
2023/07/10 03:59:51;;;;;;;1.35;1.25;;;;;;;;;;2097966;28;20029;-62
2023/07/10 04:01:10;;;;;;;1.80;1.40;;;;;;;;;;2098120;28;20056;-62
2023/07/10 04:02:28;;;;;;;1.20;1.10;;;;;;;;;;2100961;28;20036;-62
2023/07/10 04:03:47;;;;;;;1.38;1.27;;;;;;;;;;2099392;28;20028;-62
2023/07/10 04:05:06;;;;;;;1.42;1.33;;;;;;;;;;2097181;28;20128;-63
2023/07/10 04:06:26;;;;;;;4.07;1.40;;;;;;;;;;2099234;28;20032;-62
2023/07/10 04:07:45;;;;;;;2.05;1.27;;;;;;;;;;2100173;28;20028;-63
2023/07/10 04:09:04;;;;;;;1.35;1.25;;;;;;;;;;2099030;28;20052;-63
2023/07/10 04:10:23;;;;;;;1.85;1.50;;;;;;;;;;2099967;28;20032;-62
2023/07/10 04:11:41;;;;;;;1.30;1.20;;;;;;;;;;2096849;28;21172;-62
2023/07/10 04:13:01;;;;;;;3.42;1.25;;;;;;;;;;2099897;28;20059;-63
2023/07/10 04:14:19;;;;;;;5.22;1.60;;;;;;;;;;2097605;28;20032;-61
2023/07/10 04:15:38;;;;;;;0.90;0.90;;;;;;;;;;2097351;28;20037;-63
2023/07/10 04:16:58;;;;;;;1.45;1.10;;;;;;;;;;2094192;28;20111;-63
2023/07/10 04:18:17;;;;;;;0.93;0.93;;;;;;;;;;2099912;28;20025;-63
2023/07/10 04:19:36;;;;;;;1.27;1.17;;;;;;;;;;2098254;28;20033;-63
2023/07/10 04:20:56;;;;;;;1.50;1.20;;;;;;;;;;2097464;28;20032;-62
2023/07/10 04:22:15;;;;;;;1.45;1.27;;;;;;;;;;2092290;28;20021;-62
2023/07/10 04:23:33;;;;;;;2.25;1.13;;;;;;;;;;2094404;28;20032;-63
2023/07/10 04:24:53;;;;;;;1.10;1.00;;;;;;;;;;2096950;28;20032;-63
2023/07/10 04:26:16;;;;;;;1.83;1.27;;;;;;;;;;2098031;28;20040;-62
2023/07/10 04:27:35;;;;;;;1.25;1.15;;;;;;;;;;2098351;28;20501;-63
2023/07/10 04:28:55;;;;;;;0.98;0.98;;;;;;;;;;2096932;28;20025;-63
2023/07/10 04:30:14;;;;;;;1.80;0.90;;;;;;;;;;2099731;28;20036;-63
2023/07/10 04:31:33;;;;;;;1.20;1.10;;;;;;;;;;2096498;28;20051;-63
2023/07/10 04:32:52;;;;;;;3.17;1.23;;;;;;;;;;2096943;28;20025;-62
2023/07/10 04:34:11;;;;;;;1.20;1.10;;;;;;;;;;2097251;28;20631;-63
2023/07/10 04:35:30;;;;;;;1.02;1.02;;;;;;;;;;2097682;28;20034;-62
2023/07/10 04:36:49;;;;;;;2.25;1.30;;;;;;;;;;2098232;28;20459;-63
2023/07/10 04:38:08;;;;;;;1.45;1.00;;;;;;;;;;2098510;28;20060;-63
2023/07/10 04:39:27;;;;;;;1.90;1.15;;;;;;;;;;2088440;28;20414;-63
2023/07/10 04:40:56;;;;;;;2.03;1.08;;;;;;;;;;2094486;28;20033;-62
2023/07/10 04:42:15;;;;;;;1.38;1.13;;;;;;;;;;2099440;28;20443;-63
2023/07/10 04:43:34;;;;;;;1.45;1.10;;;;;;;;;;2095294;28;20563;-62
2023/07/10 04:44:53;;;;;;;3.45;1.25;;;;;;;;;;2096801;28;20028;-62
2023/07/10 04:46:13;;;;;;;3.53;1.45;;;;;;;;;;2100025;28;20041;-63
2023/07/10 04:47:32;;;;;;;2.80;1.10;;;;;;;;;;2098990;28;20027;-63
2023/07/10 04:48:51;;;;;;;1.10;1.00;;;;;;;;;;2097402;28;20032;-62
2023/07/10 04:50:10;;;;;;;2.97;1.13;;;;;;;;;;2091492;28;20024;-63
2023/07/10 04:51:29;;;;;;;1.20;1.10;;;;;;;;;;2094240;28;20647;-63
2023/07/10 04:52:48;;;;;;;1.75;1.27;;;;;;;;;;2098719;28;20032;-63
2023/07/10 04:54:07;;;;;;;1.00;1.00;;;;;;;;;;2100044;28;20036;-64
2023/07/10 04:55:26;;;;;;;1.80;1.30;;;;;;;;;;2098445;28;20108;-63
2023/07/10 04:56:46;;;;;;;2.28;1.08;;;;;;;;;;2099100;28;20103;-64
2023/07/10 04:58:05;;;;;;;2.30;1.17;;;;;;;;;;2099583;28;20488;-64
2023/07/10 04:59:24;;;;;;;3.22;1.60;;;;;;;;;;2096333;28;20596;-64
2023/07/10 05:00:43;;;;;;;1.65;1.10;;;;;;;;;;2099231;28;20052;-64
2023/07/10 05:02:02;;;;;;;1.40;1.30;;;;;;;;;;2098934;28;20037;-63
2023/07/10 05:03:21;;;;;;;1.70;1.15;;;;;;;;;;2089053;28;20036;-63
2023/07/10 05:04:41;;;;;;;4.30;1.33;;;;;;;;;;2097485;28;20024;-64
2023/07/10 05:06:00;;;;;;;1.15;1.00;;;;;;;;;;2089363;28;20192;-63
2023/07/10 05:07:18;;;;;;;1.70;1.60;;;;;;;;;;2084111;28;20040;-63
2023/07/10 05:08:37;;;;;;;1.70;1.10;;;;;;;;;;2092356;28;20036;-63
2023/07/10 05:09:56;;;;;;;3.75;1.13;;;;;;;;;;2098190;28;20020;-63
2023/07/10 05:11:15;;;;;;;1.05;0.98;;;;;;;;;;2096962;28;20397;-63
2023/07/10 05:12:34;;;;;;;1.05;1.00;;;;;;;;;;2099562;28;20024;-63
2023/07/10 05:13:54;;;;;;;4.72;1.60;;;;;;;;;;2101997;28;20021;-63
2023/07/10 05:15:13;;;;;;;2.03;1.65;;;;;;;;;;2097154;28;20389;-63
2023/07/10 05:16:32;;;;;;;3.50;1.58;;;;;;;;;;2101402;28;20036;-63
2023/07/10 05:17:51;;;;;;;2.08;1.60;;;;;;;;;;2101805;28;20025;-61
2023/07/10 05:19:10;;;;;;;6.53;1.60;;;;;;;;;;2098167;28;20020;-62
2023/07/10 05:20:29;;;;;;;5.97;2.10;;;;;;;;;;2099262;28;20028;-61
2023/07/10 05:21:48;;;;;;;4.00;1.70;;;;;;;;;;2101213;28;20461;-60
2023/07/10 05:23:07;;;;;;;3.10;1.38;;;;;;;;;;2100800;28;20028;-60
2023/07/10 05:24:25;;;;;;;2.45;1.73;;;;;;;;;;2101311;28;20477;-62
2023/07/10 05:25:54;;;;;;;3.85;1.45;;;;;;;;;;2099352;28;20032;-61
2023/07/10 05:27:13;;;;;;;4.63;2.10;;;;;;;;;;2100891;28;20111;-61
2023/07/10 05:28:32;;;;;;;1.85;1.38;;;;;;;;;;2099457;28;20025;-62
2023/07/10 05:29:51;;;;;;;2.08;1.20;;;;;;;;;;2091613;28;20025;-62
2023/07/10 05:31:10;;;;;;;2.28;1.20;;;;;;;;;;2091515;28;20485;-62
2023/07/10 05:32:30;;;;;;;1.20;1.20;;;;;;;;;;2096249;28;20029;-61
2023/07/10 05:33:49;;;;;;;1.40;1.08;;;;;;;;;;2101152;28;20017;-62
2023/07/10 05:35:08;;;;;;;5.47;1.85;;;;;;;;;;2100762;28;20044;-62
2023/07/10 05:36:27;;;;;;;2.40;0.93;;;;;;;;;;2097282;28;20056;-61
2023/07/10 05:37:46;;;;;;;2.70;1.30;;;;;;;;;;2099907;28;20029;-61
2023/07/10 05:39:05;;;;;;;4.07;1.83;;;;;;;;;;2099461;28;20490;-61
2023/07/10 05:40:24;;;;;;;3.13;1.33;;;;;;;;;;2098874;28;20036;-62
2023/07/10 05:41:43;;;;;;;2.55;1.20;;;;;;;;;;2101036;28;20020;-62
2023/07/10 05:43:02;;;;;;;2.17;1.40;;;;;;;;;;2099374;28;20036;-62
2023/07/10 05:44:22;;;;;;;3.00;1.35;;;;;;;;;;2099603;28;20032;-62
2023/07/10 05:45:41;;;;;;;9.50;1.55;;;;;;;;;;2097859;28;20028;-61
2023/07/10 05:46:59;;;;;;;6.18;1.58;;;;;;;;;;2100481;28;20036;-60
2023/07/10 05:48:18;;;;;;;1.70;1.60;;;;;;;;;;2100291;28;20029;-61
2023/07/10 05:49:37;;;;;;;5.72;1.20;;;;;;;;;;2100320;28;20032;-61
2023/07/10 05:50:56;;;;;;;2.40;1.60;;;;;;;;;;2099998;28;20028;-61
2023/07/10 05:52:15;;;;;;;1.77;1.17;;;;;;;;;;2099607;28;20024;-61
2023/07/10 05:53:34;;;;;;;4.50;1.58;;;;;;;;;;2099023;28;20037;-60
2023/07/10 05:54:53;;;;;;;4.00;1.63;;;;;;;;;;2098940;28;20040;-61
2023/07/10 05:56:12;;;;;;;1.67;1.58;;;;;;;;;;2099069;28;20024;-60
2023/07/10 05:57:31;;;;;;;1.70;1.35;;;;;;;;;;2097072;28;20115;-59
2023/07/10 05:58:50;;;;;;;3.63;1.70;;;;;;;;;;2099109;28;20505;-61
2023/07/10 06:00:09;;;;;;;2.20;1.08;;;;;;;;;;2094381;28;20036;-61
2023/07/10 06:01:28;;;;;;;7.70;1.35;;;;;;;;;;2101273;28;20040;-62
2023/07/10 06:02:47;;;;;;;1.27;1.15;;;;;;;;;;2100023;28;20029;-61
2023/07/10 06:04:06;;;;;;;3.95;1.40;;;;;;;;;;2089460;28;20028;-61
2023/07/10 06:05:25;;;;;;;2.05;1.17;;;;;;;;;;2094783;28;20057;-62
2023/07/10 06:06:45;;;;;;;1.10;1.00;;;;;;;;;;2097666;28;20028;-61
2023/07/10 06:08:04;;;;;;;2.80;1.23;;;;;;;;;;2101587;28;20024;-62
2023/07/10 06:09:23;;;;;;;1.10;1.00;;;;;;;;;;2098802;28;20750;-64
2023/07/10 06:10:42;;;;;;;0.98;0.90;;;;;;;;;;2101479;28;20044;-62
2023/07/10 06:12:02;;;;;;;1.63;1.05;;;;;;;;;;2099624;28;20380;-62
2023/07/10 06:13:21;;;;;;;1.77;0.90;;;;;;;;;;2094044;28;20063;-60
2023/07/10 06:14:40;;;;;;;1.00;1.00;;;;;;;;;;2099371;28;20037;-62
2023/07/10 06:15:59;;;;;;;1.90;1.00;;;;;;;;;;2099555;28;20024;-62
2023/07/10 06:17:18;;;;;;;0.98;0.98;;;;;;;;;;2098980;28;20067;-62
2023/07/10 06:18:37;;;;;;;3.38;1.17;;;;;;;;;;2089920;28;20412;-61
2023/07/10 06:19:56;;;;;;;3.15;1.30;;;;;;;;;;2096510;28;20408;-62
2023/07/10 06:21:18;;;;;;;1.13;1.02;;;;;;;;;;2089172;28;20041;-61
2023/07/10 06:22:37;;;;;;;1.10;0.98;;;;;;;;;;2094966;28;20396;-61
2023/07/10 06:23:56;;;;;;;1.33;1.25;;;;;;;;;;2095834;28;20399;-61
2023/07/10 06:25:15;;;;;;;2.80;0.93;;;;;;;;;;2097585;28;20039;-62
2023/07/10 06:26:34;;;;;;;4.05;1.00;;;;;;;;;;2087995;28;20040;-61
2023/07/10 06:27:53;;;;;;;1.30;1.15;;;;;;;;;;2091746;28;20029;-61
2023/07/10 06:29:12;;;;;;;2.50;0.90;;;;;;;;;;2098258;28;20374;-61
2023/07/10 06:30:31;;;;;;;2.88;1.55;;;;;;;;;;2095176;28;20024;-61
2023/07/10 06:31:50;;;;;;;2.15;1.10;;;;;;;;;;2100059;28;20115;-61
2023/07/10 06:33:09;;;;;;;1.05;1.00;;;;;;;;;;2098464;28;20068;-62
2023/07/10 06:34:28;;;;;;;2.03;1.05;;;;;;;;;;2101656;28;20489;-61
2023/07/10 06:35:47;;;;;;;0.88;0.88;;;;;;;;;;2101286;28;20033;-61
2023/07/10 06:37:06;;;;;;;1.98;0.98;;;;;;;;;;2099436;28;20044;-61
2023/07/10 06:38:25;;;;;;;0.93;0.85;;;;;;;;;;2100809;28;20417;-60
2023/07/10 06:40:02;;;;;;;2.42;0.93;;;;;;;;;;2099665;28;20056;-60
2023/07/10 06:41:21;;;;;;;1.77;1.45;;;;;;;;;;2096898;28;20032;-61
2023/07/10 06:42:41;;;;;;;1.20;1.05;;;;;;;;;;2102231;28;20032;-61
2023/07/10 06:44:00;;;;;;;1.83;0.88;;;;;;;;;;2101332;28;20071;-61
2023/07/10 06:45:19;;;;;;;1.00;1.00;;;;;;;;;;2099682;28;20063;-61
2023/07/10 06:46:38;;;;;;;1.02;1.02;;;;;;;;;;2100540;28;20028;-60
2023/07/10 06:47:57;;;;;;;1.77;1.00;;;;;;;;;;2100877;28;20033;-60
2023/07/10 06:49:16;;;;;;;1.23;1.13;;;;;;;;;;2100244;28;20024;-60
2023/07/10 06:50:35;;;;;;;1.00;1.00;;;;;;;;;;2098850;28;20013;-59
2023/07/10 06:51:54;;;;;;;1.83;1.20;;;;;;;;;;2101496;28;20025;-60
2023/07/10 06:53:14;;;;;;;1.00;0.93;;;;;;;;;;2099430;28;20051;-60
2023/07/10 06:54:32;;;;;;;2.10;0.93;;;;;;;;;;2101424;28;20248;-60
2023/07/10 06:56:00;;;;;;;1.15;0.90;;;;;;;;;;2101185;28;20021;-60
2023/07/10 06:57:19;;;;;;;1.35;1.20;;;;;;;;;;2099001;28;20482;-60
2023/07/10 06:58:38;;;;;;;1.15;1.02;;;;;;;;;;2086102;28;20052;-59
2023/07/10 06:59:57;;;;;;;1.52;0.77;;;;;;;;;;2097319;28;20024;-58
2023/07/10 07:01:15;;;;;;;2.00;1.00;;;;;;;;;;2095060;28;21681;-59
2023/07/10 07:02:35;;;;;;;1.10;1.00;;;;;;;;;;2084225;28;20579;-59
2023/07/10 07:03:54;;;;;;;1.00;1.00;;;;;;;;;;2092989;28;20036;-59
2023/07/10 07:05:13;;;;;;;1.00;0.88;;;;;;;;;;2089027;28;20108;-59
2023/07/10 07:06:32;;;;;;;1.30;0.90;;;;;;;;;;2092594;28;20230;-60
2023/07/10 07:07:51;;;;;;;1.17;1.05;;;;;;;;;;2098448;28;20447;-60
2023/07/10 07:09:10;;;;;;;1.55;1.20;;;;;;;;;;2098018;28;20393;-58
2023/07/10 07:10:29;;;;;;;1.30;1.20;;;;;;;;;;2096830;28;20481;-59
2023/07/10 07:11:48;;;;;;;2.13;1.60;;;;;;;;;;2098211;28;20099;-61
2023/07/10 07:13:07;;;;;;;3.20;1.30;;;;;;;;;;2099888;28;20037;-59
2023/07/10 07:14:27;;;;;;;1.73;1.33;;;;;;;;;;2099051;28;20484;-59
2023/07/10 07:15:53;;;;;;;1.25;1.00;;;;;;;;;;2094347;28;20056;-58
2023/07/10 07:17:14;;;;;;;0.95;0.95;;;;;;;;;;2096763;28;20048;-59
2023/07/10 07:18:33;;;;;;;1.45;1.35;;;;;;;;;;2093752;28;20719;-60
2023/07/10 07:19:52;;;;;;;0.90;0.90;;;;;;;;;;2096509;28;20478;-59
2023/07/10 07:21:13;;;;;;;1.77;0.80;;;;;;;;;;2096297;28;20706;-59
2023/07/10 07:22:32;;;;;;;1.20;1.17;;;;;;;;;;2086615;28;20020;-57
2023/07/10 07:23:51;;;;;;;3.72;1.10;;;;;;;;;;2090527;28;20040;-59
2023/07/10 07:25:10;;;;;;;0.82;0.82;;;;;;;;;;2094233;28;20501;-58
2023/07/10 07:26:29;;;;;;;1.35;1.25;;;;;;;;;;2097441;28;20119;-57
2023/07/10 07:27:48;;;;;;;0.95;0.95;;;;;;;;;;2098340;28;20036;-61
2023/07/10 07:29:07;;;;;;;2.53;1.40;;;;;;;;;;2095059;28;20040;-62
2023/07/10 07:30:30;;;;;;;1.85;1.02;;;;;;;;;;2094067;28;20029;-61
2023/07/10 07:31:49;;;;;;;1.45;1.30;;;;;;;;;;2098000;28;20028;-61
2023/07/10 07:33:08;;;;;;;1.10;1.00;;;;;;;;;;2096067;28;20037;-60
2023/07/10 07:34:27;;;;;;;1.05;1.05;;;;;;;;;;2098835;28;20041;-63
2023/07/10 07:35:47;;;;;;;1.70;1.60;;;;;;;;;;2095288;28;20024;-60
2023/07/10 07:37:06;;;;;;;1.30;1.10;;;;;;;;;;2095541;28;20033;-60
2023/07/10 07:38:25;;;;;;;1.40;1.30;;;;;;;;;;2099452;28;20115;-63
2023/07/10 07:39:44;;;;;;;1.30;1.08;;;;;;;;;;2096231;28;20032;-65
2023/07/10 07:41:05;;;;;;;4.85;1.20;;;;;;;;;;2095173;28;20040;-64
2023/07/10 07:42:24;;;;;;;1.10;1.10;;;;;;;;;;2096789;28;20029;-66
2023/07/10 07:43:43;;;;;;;1.10;1.10;;;;;;;;;;2097577;28;20037;-65
2023/07/10 07:45:02;;;;;;;2.50;1.08;;;;;;;;;;2095192;28;20545;-64
2023/07/10 07:46:22;;;;;;;0.90;0.90;;;;;;;;;;2099483;28;20028;-64
2023/07/10 07:47:41;;;;;;;0.90;0.90;;;;;;;;;;2094941;28;20055;-65
2023/07/10 07:49:00;;;;;;;1.90;1.30;;;;;;;;;;2090459;28;20056;-63
2023/07/10 07:50:19;;;;;;;1.15;1.10;;;;;;;;;;2098370;28;20032;-66
2023/07/10 07:51:37;;;;;;;1.00;1.00;;;;;;;;;;2096184;28;20493;-64
2023/07/10 07:52:57;;;;;;;1.42;1.05;;;;;;;;;;2097894;28;20032;-62
2023/07/10 07:54:16;;;;;;;2.72;1.00;;;;;;;;;;2093980;28;20294;-62
2023/07/10 07:55:35;;;;;;;7.32;1.35;;;;;;;;;;2095055;28;20029;-63
2023/07/10 07:56:55;;;;;;;8.13;4.88;;;;;;;;;;2097332;28;20017;-63